Airfield :
LOGIN :

Register | Disclaimer

   EN    FR    IT 

 










Legend :    VFR   Marginal VFR   IFR   Intensive IFR   Very Intensive IFR
Visi :
Ceiling :
>= 8 km
>= 3000ft
5 to 8 km
1000 to 3000 ft
1500m to 5 km
500 to 1000 ft
800 to 1500m
200 to 500 ft
< 800m
< 200 ft
Symbols :   Thunderstorms  Fog  Heavy snow  Heavy precipitations  Wind > 20 kt
SIGMETs :     Misc.  Thunderstorms  Icing  Turbulence  Mountain Waves  Volcanic Ashes







- Airport Elevation : 459 ft
- IATA code : CER
- Download approach charts


LFRC - Cherbourg / Maupertus

CURRENT METAR :
  • 170530Z AUTO 21012KT 2600 -RA BR OVC004 18/17 Q1013 TEMPO 20015G25KT 3000 RADZ BKN005

EXPIRED METARs :
  • 170500Z AUTO 20012KT 4500 -DZ BR OVC004 18/17 Q1013
  • 170430Z AUTO 20011KT 3700 -RA BR OVC004 18/17 Q1013
  • 170400Z AUTO 20015KT 9999 OVC006 18/17 Q1013
  • 170330Z AUTO 20015KT 9999 OVC005 17/17 Q1013
  • 170300Z AUTO 19013KT 9999 -RA BKN005 OVC009 17/16 Q1013

TAF TAF LFRC
Valid from the 17 at 06:00 until the 17 at 15:00 UTC


170500Z 1706/1715 19013KT 9999 OVC010
TEMPO 1706/1708 20015G25KT
TEMPO 1706/1712 3000 RADZ BKN005
BECMG 1707/1710 25010KT
BECMG 1712/1715 BKN020
TEMPO 1712/1715 5000 RADZ BKN012
No reported NOTAMs for that airfield.



MET'MAP, your aeronautical weather chart ! - Copyright ORBIFLY December 2007 - Disclaimer

ORBIFLY MET'MAP TEAM :

Programming & Development : Alexandra Zaïnal
Concept & Development : Baudouin d'Aumeries
Co-Development & Prog : Marc-Olivier Méhu
Technical & hardware support : Manuel Goepfert

Contact : metmap@orbifly.com




SOURCES & CREDITS :

   NOAA